createdAt,value
2017-07-09T00:00:37.436Z,75.29
2017-07-09T00:03:05.176Z,75.82
2017-07-09T00:05:32.872Z,76.04
2017-07-09T00:08:00.643Z,76.50
2017-07-09T00:10:28.357Z,74.59
2017-07-09T00:12:56.062Z,74.61
2017-07-09T00:15:23.952Z,75.63
2017-07-09T00:17:51.738Z,75.94
2017-07-09T00:20:19.426Z,75.77
2017-07-09T00:22:47.143Z,76.61
2017-07-09T00:25:14.899Z,76.40
2017-07-09T00:27:42.611Z,76.33
2017-07-09T00:30:10.313Z,77.01
2017-07-09T00:32:38.125Z,76.74
2017-07-09T00:35:05.839Z,77.07
2017-07-09T00:37:38.594Z,76.60
2017-07-09T00:40:06.642Z,76.83
2017-07-09T00:42:35.750Z,76.97
2017-07-09T00:45:03.750Z,76.51
2017-07-09T00:47:31.669Z,77.29
2017-07-09T00:49:59.690Z,76.83
2017-07-09T00:52:28.421Z,77.08
2017-07-09T00:54:57.961Z,77.35
2017-07-09T00:57:26.092Z,77.72
2017-07-09T00:59:54.740Z,78.20
2017-07-09T01:02:23.749Z,77.90
2017-07-09T01:04:51.762Z,77.62
2017-07-09T01:07:19.635Z,78.14
2017-07-09T01:09:47.749Z,78.57
2017-07-09T01:12:17.166Z,79.00
2017-07-09T01:14:47.834Z,78.75
2017-07-09T01:17:18.173Z,78.51
2017-07-09T01:19:46.195Z,78.61
2017-07-09T01:22:14.700Z,79.40
2017-07-09T01:24:44.674Z,79.29
2017-07-09T01:27:13.497Z,78.84
2017-07-09T01:29:41.593Z,79.31
2017-07-09T01:32:11.896Z,79.44
2017-07-09T01:34:41.090Z,79.56
2017-07-09T01:37:09.984Z,79.96
2017-07-09T01:39:38.806Z,79.00
2017-07-09T01:42:07.151Z,79.60
2017-07-09T01:44:35.773Z,79.53
2017-07-09T01:47:03.846Z,80.14
2017-07-09T01:49:31.803Z,79.75
2017-07-09T01:52:00.521Z,80.00
2017-07-09T01:54:28.520Z,79.47
2017-07-09T01:56:56.662Z,79.35
2017-07-09T01:59:26.456Z,79.47
2017-07-09T02:01:54.516Z,79.32
2017-07-09T02:04:25.881Z,80.05
2017-07-09T02:06:53.918Z,79.62
2017-07-09T02:09:21.991Z,80.24
2017-07-09T02:11:50.023Z,80.68
2017-07-09T02:14:21.815Z,80.58
2017-07-09T02:16:52.468Z,79.99
2017-07-09T02:19:24.645Z,80.18
2017-07-09T02:21:52.759Z,80.39
2017-07-09T02:24:20.855Z,80.01
2017-07-09T02:26:48.807Z,80.88
2017-07-09T02:29:17.677Z,80.38
2017-07-09T02:31:46.501Z,80.35
2017-07-09T02:34:14.454Z,80.53
2017-07-09T02:36:42.392Z,80.73
2017-07-09T02:39:11.604Z,80.54
2017-07-09T02:41:39.586Z,80.93
2017-07-09T02:44:07.691Z,80.37
2017-07-09T02:46:37.086Z,79.91
2017-07-09T02:51:39.327Z,80.66
2017-07-09T02:54:07.384Z,81.23
2017-07-09T02:56:35.377Z,82.91
2017-07-09T02:59:04.492Z,82.01
2017-07-09T03:01:32.438Z,81.26
2017-07-09T03:04:00.570Z,81.65
2017-07-09T03:06:30.614Z,82.19
2017-07-09T03:09:01.757Z,81.60
2017-07-09T03:11:29.765Z,81.21
2017-07-09T03:13:57.819Z,81.97
2017-07-09T03:16:25.754Z,81.82
2017-07-09T03:18:53.817Z,81.22
2017-07-09T03:23:56.332Z,80.56
2017-07-09T03:26:25.430Z,81.50
2017-07-09T03:28:55.554Z,81.72
2017-07-09T03:31:23.660Z,81.63
2017-07-09T03:33:52.091Z,81.04
2017-07-09T03:36:20.078Z,81.11
2017-07-09T03:38:48.127Z,81.27
2017-07-09T03:41:16.100Z,81.92
2017-07-09T03:43:44.345Z,81.28
2017-07-09T03:46:12.199Z,81.39
2017-07-09T03:48:41.010Z,81.00
2017-07-09T03:51:09.623Z,80.92
2017-07-09T03:53:37.677Z,82.02
2017-07-09T03:56:06.255Z,82.01
2017-07-09T03:58:34.252Z,81.19
2017-07-09T04:01:03.178Z,81.52
2017-07-09T04:03:31.966Z,82.32
2017-07-09T04:05:59.943Z,81.72
2017-07-09T04:08:28.002Z,81.78
2017-07-09T04:10:56.042Z,82.19
2017-07-09T04:13:24.399Z,81.84
2017-07-09T04:15:57.011Z,82.01
2017-07-09T04:18:25.050Z,81.57
2017-07-09T04:20:53.900Z,80.82
2017-07-09T04:23:22.638Z,82.18
2017-07-09T04:25:50.669Z,82.18
2017-07-09T04:28:19.739Z,82.08
2017-07-09T04:30:47.836Z,82.06
2017-07-09T04:33:16.766Z,82.01
2017-07-09T04:35:44.760Z,82.23
2017-07-09T04:38:13.370Z,82.48
2017-07-09T04:40:41.352Z,81.74
2017-07-09T04:43:09.410Z,82.00
2017-07-09T04:45:40.692Z,82.22
2017-07-09T04:48:09.621Z,82.16
2017-07-09T04:50:40.922Z,81.08
2017-07-09T04:53:09.886Z,80.50
2017-07-09T04:55:38.001Z,80.53
2017-07-09T04:58:07.832Z,79.30
2017-07-09T05:00:36.060Z,79.17
2017-07-09T05:03:04.129Z,78.54
2017-07-09T05:05:32.129Z,77.62
2017-07-09T05:08:03.054Z,76.18
2017-07-09T05:10:33.951Z,77.16
2017-07-09T05:13:02.133Z,77.19
2017-07-09T05:15:30.106Z,75.68
2017-07-09T05:17:58.233Z,75.52
2017-07-09T05:20:27.134Z,75.19
2017-07-09T05:22:56.918Z,74.51
2017-07-09T05:25:26.123Z,74.12
2017-07-09T05:27:54.159Z,73.44
2017-07-09T05:30:22.120Z,73.25
2017-07-09T05:32:50.495Z,73.50
2017-07-09T05:35:18.471Z,72.38
2017-07-09T05:37:46.615Z,72.54
2017-07-09T05:40:14.672Z,71.82
2017-07-09T05:42:42.620Z,71.06
2017-07-09T05:45:10.643Z,70.61
2017-07-09T05:47:39.351Z,70.15
2017-07-09T05:50:07.386Z,69.06
2017-07-09T05:52:35.252Z,70.22
2017-07-09T05:55:03.190Z,70.84
2017-07-09T05:57:31.109Z,71.18
2017-07-09T05:59:59.939Z,70.04
2017-07-09T06:02:28.684Z,68.87
2017-07-09T06:04:56.650Z,69.92
2017-07-09T06:07:26.193Z,71.74
2017-07-09T06:09:57.126Z,70.56
2017-07-09T06:12:25.120Z,68.32
2017-07-09T06:14:53.061Z,69.38
2017-07-09T06:17:21.114Z,70.06
2017-07-09T06:19:50.004Z,69.37
2017-07-09T06:22:19.828Z,67.70
2017-07-09T06:24:47.859Z,68.40
2017-07-09T06:29:52.502Z,69.49
2017-07-09T06:32:22.917Z,68.01
2017-07-09T06:34:51.827Z,69.69
2017-07-09T06:37:19.903Z,67.68
2017-07-09T06:39:48.384Z,66.65
2017-07-09T06:42:16.282Z,64.12
2017-07-09T06:44:44.185Z,65.01
2017-07-09T06:47:12.232Z,64.53
2017-07-09T06:49:40.301Z,63.17
2017-07-09T06:52:09.365Z,60.83
2017-07-09T06:54:37.246Z,62.39
2017-07-09T06:57:05.287Z,62.25
2017-07-09T06:59:33.194Z,60.08
2017-07-09T07:02:01.578Z,58.59
2017-07-09T07:04:30.420Z,60.90
2017-07-09T07:06:58.598Z,59.89
2017-07-09T07:09:27.865Z,58.70
2017-07-09T07:11:55.891Z,58.87
2017-07-09T07:14:23.945Z,59.65
2017-07-09T07:16:52.001Z,59.28
2017-07-09T07:19:19.950Z,58.29
2017-07-09T07:21:49.600Z,57.42
2017-07-09T07:24:19.459Z,56.16
2017-07-09T07:26:48.269Z,55.91
2017-07-09T07:29:16.407Z,56.69
2017-07-09T07:31:45.122Z,55.56
2017-07-09T07:34:13.173Z,54.94
2017-07-09T07:36:41.290Z,55.90
2017-07-09T07:39:09.553Z,57.35
2017-07-09T07:41:37.596Z,57.94
2017-07-09T07:44:06.735Z,57.91
2017-07-09T07:46:34.725Z,58.99
2017-07-09T07:49:02.767Z,59.85
2017-07-09T07:51:30.765Z,57.70
2017-07-09T07:53:58.732Z,58.24
2017-07-09T07:56:26.630Z,56.78
2017-07-09T07:58:54.698Z,57.25
2017-07-09T08:01:22.771Z,59.63
2017-07-09T08:03:50.645Z,58.32
2017-07-09T08:06:18.527Z,59.01
2017-07-09T08:08:46.468Z,57.13
2017-07-09T08:11:14.385Z,59.32
2017-07-09T08:13:42.267Z,59.22
2017-07-09T08:16:10.268Z,57.37
2017-07-09T08:18:38.110Z,56.01
2017-07-09T08:21:06.168Z,57.14
2017-07-09T08:23:34.943Z,55.94
2017-07-09T08:26:02.945Z,53.09
2017-07-09T08:28:31.084Z,54.75
2017-07-09T08:30:59.637Z,55.78
2017-07-09T08:33:27.733Z,56.79
2017-07-09T08:35:56.766Z,58.00
2017-07-09T08:38:24.642Z,58.24
2017-07-09T08:40:54.243Z,58.02
2017-07-09T08:43:24.153Z,57.38
2017-07-09T08:45:52.047Z,57.45
2017-07-09T08:48:20.241Z,57.96
2017-07-09T08:50:48.275Z,54.99
2017-07-09T08:53:17.079Z,57.07
2017-07-09T08:55:45.119Z,55.46
2017-07-09T08:58:13.909Z,56.01
2017-07-09T09:00:42.182Z,55.25
2017-07-09T09:03:14.310Z,55.28
2017-07-09T09:05:49.231Z,56.19
2017-07-09T09:08:23.296Z,55.50
2017-07-09T09:10:51.726Z,55.41
2017-07-09T09:13:21.182Z,55.34
2017-07-09T09:15:49.175Z,56.35
2017-07-09T09:18:17.147Z,56.15
2017-07-09T09:20:45.221Z,56.54
2017-07-09T09:23:16.775Z,56.45
2017-07-09T09:25:45.267Z,53.43
2017-07-09T09:28:13.488Z,54.85
2017-07-09T09:30:42.251Z,55.94
2017-07-09T09:33:11.385Z,55.07
2017-07-09T09:35:39.499Z,54.67
2017-07-09T09:38:07.512Z,53.30
2017-07-09T09:40:36.166Z,54.39
2017-07-09T09:43:04.723Z,55.17
2017-07-09T09:45:34.084Z,55.08
2017-07-09T09:48:02.097Z,52.77
2017-07-09T09:50:30.071Z,51.98
2017-07-09T09:52:58.471Z,51.64
2017-07-09T09:55:28.724Z,50.68
2017-07-09T09:57:56.918Z,51.07
2017-07-09T10:00:24.923Z,51.07
2017-07-09T10:02:52.830Z,52.08
2017-07-09T10:05:20.845Z,48.87
2017-07-09T10:07:48.748Z,48.66
2017-07-09T10:10:16.887Z,48.84
2017-07-09T10:12:44.919Z,46.65
2017-07-09T10:15:13.876Z,46.83
2017-07-09T10:17:42.661Z,47.04
2017-07-09T10:20:10.572Z,48.25
2017-07-09T10:22:38.552Z,47.93
2017-07-09T10:25:06.495Z,47.32
2017-07-09T10:27:34.485Z,47.54
2017-07-09T10:30:02.301Z,46.97
2017-07-09T10:32:30.216Z,47.23
2017-07-09T10:34:58.217Z,45.91
2017-07-09T10:37:26.955Z,47.63
2017-07-09T10:39:56.028Z,45.24
2017-07-09T10:42:23.851Z,47.11
2017-07-09T10:44:51.880Z,47.25
2017-07-09T10:47:19.844Z,46.65
2017-07-09T10:49:47.668Z,45.57
2017-07-09T10:52:16.631Z,44.64
2017-07-09T10:54:44.557Z,44.37
2017-07-09T10:57:12.379Z,43.64
2017-07-09T10:59:40.346Z,44.64
2017-07-09T11:02:08.150Z,44.53
2017-07-09T11:04:36.028Z,43.55
2017-07-09T11:07:04.155Z,41.57
2017-07-09T11:09:32.104Z,41.90
2017-07-09T11:12:00.026Z,40.59
2017-07-09T11:14:28.097Z,40.67
2017-07-09T11:16:56.004Z,40.35
2017-07-09T11:19:24.678Z,42.59
2017-07-09T11:21:52.554Z,41.74
2017-07-09T11:24:20.507Z,40.29
2017-07-09T11:26:48.629Z,40.27
2017-07-09T11:29:16.544Z,40.68
2017-07-09T11:31:44.572Z,40.00
2017-07-09T11:34:13.532Z,39.19
2017-07-09T11:36:42.835Z,39.18
2017-07-09T11:39:10.857Z,40.47
2017-07-09T11:41:38.747Z,40.02
2017-07-09T11:44:06.771Z,39.47
2017-07-09T11:46:34.594Z,39.54
2017-07-09T11:49:02.472Z,38.26
2017-07-09T11:51:30.548Z,39.47
2017-07-09T11:56:33.447Z,38.64
2017-07-09T11:59:01.407Z,40.85
2017-07-09T12:01:29.558Z,40.44
2017-07-09T12:03:57.550Z,40.49
2017-07-09T12:06:25.573Z,40.05
2017-07-09T12:08:53.799Z,39.28
2017-07-09T12:11:21.731Z,39.25
2017-07-09T12:13:49.815Z,40.03
2017-07-09T12:16:17.787Z,37.82
2017-07-09T12:18:45.791Z,39.63
2017-07-09T12:21:13.737Z,40.01
2017-07-09T12:23:43.538Z,39.36
2017-07-09T12:26:12.816Z,39.65
2017-07-09T12:28:40.961Z,41.61
2017-07-09T12:31:09.764Z,41.46
2017-07-09T12:33:38.183Z,41.64
2017-07-09T12:36:07.162Z,41.80
2017-07-09T12:38:35.240Z,43.32
2017-07-09T12:41:03.234Z,44.99
2017-07-09T12:43:31.317Z,43.15
2017-07-09T12:45:59.413Z,45.04
2017-07-09T12:48:27.695Z,44.76
2017-07-09T12:50:55.599Z,44.07
2017-07-09T12:53:24.375Z,42.78
2017-07-09T12:55:52.459Z,44.44
2017-07-09T12:58:20.389Z,44.60
2017-07-09T13:00:48.399Z,45.34
2017-07-09T13:03:16.395Z,45.32
2017-07-09T13:08:18.395Z,47.58
2017-07-09T13:10:46.392Z,46.30
2017-07-09T13:13:14.546Z,46.63
2017-07-09T13:15:44.435Z,46.28
2017-07-09T13:18:12.441Z,46.12
2017-07-09T13:20:40.303Z,47.28
2017-07-09T13:23:08.469Z,48.81
2017-07-09T13:25:36.428Z,52.26
2017-07-09T13:28:04.391Z,52.17
2017-07-09T13:30:32.402Z,52.16
2017-07-09T13:33:01.444Z,52.74
2017-07-09T13:35:29.332Z,51.45
2017-07-09T13:37:57.167Z,50.69
2017-07-09T13:40:25.222Z,50.77
2017-07-09T13:42:53.285Z,50.39
2017-07-09T13:45:21.669Z,49.01
2017-07-09T13:47:49.457Z,47.40
2017-07-09T13:50:18.741Z,47.57
2017-07-09T13:52:47.315Z,49.49
2017-07-09T13:55:15.280Z,48.76
2017-07-09T13:57:43.252Z,48.80
2017-07-09T14:00:11.214Z,45.66
2017-07-09T14:02:39.107Z,46.92
2017-07-09T14:05:07.024Z,44.70
2017-07-09T14:07:35.100Z,45.83
2017-07-09T14:10:03.652Z,44.61
2017-07-09T14:12:32.039Z,43.76
2017-07-09T14:14:59.953Z,44.39
2017-07-09T14:17:27.843Z,42.25
2017-07-09T14:19:56.401Z,43.65
2017-07-09T14:22:24.299Z,43.03
2017-07-09T14:24:52.463Z,42.25
2017-07-09T14:27:20.365Z,42.80
2017-07-09T14:29:48.268Z,43.18
2017-07-09T14:32:16.061Z,43.56
2017-07-09T14:34:44.009Z,42.79
2017-07-09T14:37:12.018Z,42.64
2017-07-09T14:39:39.862Z,40.29
2017-07-09T14:42:07.734Z,42.04
2017-07-09T14:44:35.735Z,42.03
2017-07-09T14:47:03.636Z,42.46
2017-07-09T14:49:31.629Z,40.68
2017-07-09T14:51:59.493Z,39.79
2017-07-09T14:54:27.442Z,39.84
2017-07-09T14:56:55.447Z,40.66
2017-07-09T14:59:24.224Z,39.05
2017-07-09T15:01:52.063Z,39.80
2017-07-09T15:04:20.091Z,41.01
2017-07-09T15:06:48.065Z,41.83
2017-07-09T15:09:16.691Z,39.86
2017-07-09T15:11:45.061Z,42.52
2017-07-09T15:14:13.028Z,41.33
2017-07-09T15:16:42.405Z,41.42
2017-07-09T15:19:11.337Z,41.62
2017-07-09T15:21:39.222Z,40.26
2017-07-09T15:24:07.264Z,40.16
2017-07-09T15:26:35.249Z,39.21
2017-07-09T15:29:03.242Z,40.51
2017-07-09T15:31:31.152Z,41.00
2017-07-09T15:33:59.187Z,42.23
2017-07-09T15:36:28.000Z,41.88
2017-07-09T15:38:56.873Z,41.09
2017-07-09T15:41:24.919Z,42.08
2017-07-09T15:43:52.771Z,41.34
2017-07-09T15:46:20.724Z,42.13
2017-07-09T15:48:48.988Z,42.11
2017-07-09T15:51:16.905Z,42.64
2017-07-09T15:53:44.882Z,42.46
2017-07-09T15:56:12.882Z,43.04
2017-07-09T15:58:40.844Z,43.26
2017-07-09T16:01:08.795Z,42.84
2017-07-09T16:03:36.806Z,42.95
2017-07-09T16:06:04.931Z,44.27
2017-07-09T16:08:33.098Z,45.02
2017-07-09T16:11:01.065Z,47.08
2017-07-09T16:13:29.296Z,47.88
2017-07-09T16:15:57.287Z,48.17
2017-07-09T16:18:25.126Z,47.76
2017-07-09T16:20:54.121Z,48.94
2017-07-09T16:23:22.993Z,48.72
2017-07-09T16:25:50.915Z,48.72
2017-07-09T16:28:18.877Z,48.69
2017-07-09T16:30:47.651Z,51.05
2017-07-09T16:33:15.676Z,50.88
2017-07-09T16:35:43.654Z,51.87
2017-07-09T16:38:12.153Z,53.55
2017-07-09T16:40:40.101Z,54.30
2017-07-09T16:43:09.974Z,54.96
2017-07-09T16:45:41.440Z,56.48
2017-07-09T16:48:12.229Z,55.38
2017-07-09T16:50:40.244Z,56.01
2017-07-09T16:53:08.974Z,57.58
2017-07-09T16:55:36.903Z,58.59
2017-07-09T16:58:05.668Z,56.85
2017-07-09T17:00:33.648Z,56.91
2017-07-09T17:03:01.834Z,56.19
2017-07-09T17:05:31.646Z,57.11
2017-07-09T17:08:00.903Z,58.51
2017-07-09T17:10:29.005Z,58.76
2017-07-09T17:12:57.022Z,58.67
2017-07-09T17:15:25.561Z,58.99
2017-07-09T17:17:54.981Z,59.85
2017-07-09T17:20:23.534Z,59.77
2017-07-09T17:22:51.539Z,60.54
2017-07-09T17:25:19.980Z,61.56
2017-07-09T17:27:47.794Z,62.22
2017-07-09T17:30:15.602Z,60.96
2017-07-09T17:32:44.032Z,61.19
2017-07-09T17:35:11.867Z,61.14
2017-07-09T17:37:41.000Z,62.59
2017-07-09T17:40:09.029Z,60.54
2017-07-09T17:42:38.204Z,63.03
2017-07-09T17:45:06.198Z,64.15
2017-07-09T17:47:34.408Z,64.27
2017-07-09T17:50:02.678Z,62.89
2017-07-09T17:52:30.887Z,63.72
2017-07-09T17:54:58.870Z,63.62
2017-07-09T17:57:26.923Z,63.44
2017-07-09T17:59:55.872Z,63.53
2017-07-09T18:02:25.382Z,64.61
2017-07-09T18:04:53.439Z,65.09
2017-07-09T18:07:21.409Z,66.18
2017-07-09T18:09:51.365Z,67.76
2017-07-09T18:12:21.037Z,63.98
2017-07-09T18:14:49.069Z,63.51
2017-07-09T18:17:17.833Z,66.57
2017-07-09T18:19:48.437Z,71.11
2017-07-09T18:22:18.225Z,68.95
2017-07-09T18:24:50.005Z,70.23
2017-07-09T18:27:19.764Z,74.28
2017-07-09T18:29:55.303Z,71.99
2017-07-09T18:32:25.914Z,73.49
2017-07-09T18:34:57.039Z,71.87
2017-07-09T18:37:29.627Z,73.05
2017-07-09T18:40:01.051Z,75.74
2017-07-09T18:42:30.933Z,76.12
2017-07-09T18:44:59.874Z,76.73
2017-07-09T18:47:31.142Z,78.30
2017-07-09T18:50:02.032Z,77.55
2017-07-09T18:52:31.728Z,78.86
2017-07-09T18:55:01.186Z,79.54
2017-07-09T18:57:33.407Z,78.60
2017-07-09T19:00:03.142Z,79.20
2017-07-09T19:02:32.118Z,79.90
2017-07-09T19:05:00.433Z,79.25
2017-07-09T19:10:13.246Z,79.66
2017-07-09T19:12:42.889Z,78.84
2017-07-09T19:15:11.990Z,79.91
2017-07-09T19:17:41.739Z,79.75
2017-07-09T19:20:09.788Z,79.97
2017-07-09T19:22:39.149Z,80.46
2017-07-09T19:25:10.007Z,80.56
2017-07-09T19:27:37.738Z,79.52
2017-07-09T19:30:06.199Z,80.75
2017-07-09T19:32:35.875Z,79.75
2017-07-09T19:35:06.570Z,81.40
2017-07-09T19:37:35.139Z,81.10
2017-07-09T19:40:03.702Z,81.32
2017-07-09T19:42:31.761Z,80.25
2017-07-09T19:44:59.863Z,78.89
2017-07-09T19:47:28.339Z,81.56
2017-07-09T19:49:57.253Z,81.17
2017-07-09T19:52:25.194Z,81.93
2017-07-09T19:54:53.236Z,81.21
2017-07-09T19:57:20.979Z,81.67
2017-07-09T19:59:49.065Z,81.44
2017-07-09T20:02:16.838Z,82.01
2017-07-09T20:04:44.767Z,82.37
2017-07-09T20:07:12.569Z,83.06
2017-07-09T20:09:40.432Z,82.00
2017-07-09T20:12:08.347Z,82.05
2017-07-09T20:14:36.214Z,81.57
2017-07-09T20:17:04.000Z,81.19
2017-07-09T20:19:31.782Z,80.93
2017-07-09T20:21:59.591Z,81.06
2017-07-09T20:24:27.337Z,81.22
2017-07-09T20:26:55.087Z,81.98
2017-07-09T20:29:22.811Z,81.81
2017-07-09T20:31:50.743Z,83.30
2017-07-09T20:34:18.505Z,81.44
2017-07-09T20:36:46.237Z,81.90
2017-07-09T20:39:14.046Z,84.10
2017-07-09T20:41:41.997Z,83.41
2017-07-09T20:44:10.309Z,82.64
2017-07-09T20:46:38.148Z,83.71
2017-07-09T20:49:05.860Z,83.94
2017-07-09T20:51:33.694Z,83.46
2017-07-09T20:54:01.488Z,83.50
2017-07-09T20:56:30.375Z,83.41
2017-07-09T20:58:58.136Z,83.66
2017-07-09T21:01:26.017Z,83.54
2017-07-09T21:03:53.833Z,83.64
2017-07-09T21:06:21.545Z,82.97
2017-07-09T21:08:49.329Z,83.02
2017-07-09T21:11:17.126Z,82.83
2017-07-09T21:13:44.865Z,82.76
2017-07-09T21:16:12.675Z,84.20
2017-07-09T21:18:40.431Z,83.20
2017-07-09T21:21:08.136Z,82.89
2017-07-09T21:23:35.973Z,81.92
2017-07-09T21:26:03.777Z,84.07
2017-07-09T21:28:31.572Z,83.09
2017-07-09T21:30:59.332Z,82.85
2017-07-09T21:33:27.055Z,83.24
2017-07-09T21:35:54.800Z,82.48
2017-07-09T21:38:22.625Z,82.82
2017-07-09T21:40:50.328Z,84.34
2017-07-09T21:43:18.090Z,85.79
2017-07-09T21:45:45.914Z,85.99
2017-07-09T21:48:14.143Z,85.42
2017-07-09T21:50:42.615Z,85.43
2017-07-09T21:53:10.381Z,85.68
2017-07-09T21:55:38.196Z,86.45
2017-07-09T21:58:05.948Z,85.74
2017-07-09T22:00:33.701Z,86.68
2017-07-09T22:03:01.434Z,86.74
2017-07-09T22:05:29.190Z,84.93
2017-07-09T22:07:56.897Z,84.38
2017-07-09T22:10:24.640Z,85.05
2017-07-09T22:12:53.442Z,85.53
2017-07-09T22:15:21.198Z,85.19
2017-07-09T22:17:48.901Z,82.96
2017-07-09T22:20:16.661Z,83.17
2017-07-09T22:22:44.443Z,83.46
2017-07-09T22:25:12.246Z,83.95
2017-07-09T22:27:39.959Z,83.84
2017-07-09T22:30:07.718Z,84.31
2017-07-09T22:32:35.473Z,84.19
2017-07-09T22:35:03.266Z,84.13
2017-07-09T22:37:30.972Z,85.25
2017-07-09T22:39:58.730Z,85.26
2017-07-09T22:42:26.510Z,86.42
2017-07-09T22:44:54.249Z,85.44
2017-07-09T22:47:22.009Z,84.51
2017-07-09T22:49:49.700Z,86.06
2017-07-09T22:52:17.501Z,85.44
2017-07-09T22:54:45.566Z,85.11
2017-07-09T22:57:13.273Z,85.55
2017-07-09T22:59:40.984Z,84.42
2017-07-09T23:02:09.192Z,83.47
2017-07-09T23:04:36.908Z,83.63
2017-07-09T23:07:04.590Z,84.43
2017-07-09T23:09:32.371Z,85.00
2017-07-09T23:12:00.263Z,84.17
2017-07-09T23:14:27.973Z,84.49
2017-07-09T23:16:55.658Z,84.01
2017-07-09T23:19:23.447Z,85.99
2017-07-09T23:21:51.215Z,85.94
2017-07-09T23:24:18.958Z,86.35
2017-07-09T23:26:46.809Z,84.65
2017-07-09T23:29:14.688Z,83.81
2017-07-09T23:31:42.467Z,83.78
2017-07-09T23:34:10.253Z,84.11
2017-07-09T23:36:38.095Z,84.37
2017-07-09T23:39:05.790Z,84.98
2017-07-09T23:41:33.519Z,84.78
2017-07-09T23:44:01.271Z,84.07
2017-07-09T23:46:28.981Z,84.35
2017-07-09T23:48:56.806Z,84.40
2017-07-09T23:51:24.514Z,84.49
2017-07-09T23:53:52.219Z,84.84
2017-07-09T23:56:20.054Z,84.77
2017-07-09T23:58:47.768Z,84.62
